This is the latest recevied weather packets stored in our database for station/object BMCB-31. If no packets are shown the sender has not sent any weather packets the latest 10 day(s).
| Time | Temp. | Humidity | Pressure | Rain* | Wind** | Luminosity | Snow |
|---|---|---|---|---|---|---|---|
| 1777716655 | 21.11° C | 53% | 1020.3 hPa | 0 mm | - | 322 W/m² | - |
| 1777709454 | 18.33° C | 56% | 1021.6 hPa | 0 mm | - | 262 W/m² | - |
| 1777705255 | 15.56° C | 59% | 1021.7 hPa | 0 mm | - | 72 W/m² | - |
| 1777702853 | 15° C | 57% | 1022.4 hPa | 0 mm | - | 120 W/m² | - |
| 1777701657 | 15° C | 54% | 1022.5 hPa | 0 mm | - | 70 W/m² | - |
| 1777696256 | 13.33° C | 46% | 1022.4 hPa | 0 mm | - | 18 W/m² | - |
| 1777695656 | 13.33° C | 46% | 1022.4 hPa | 0 mm | - | 10 W/m² | - |
| 1777693856 | 13.89° C | 43% | 1022.8 hPa | 0 mm | - | 0 W/m² | - |
| 1777685457 | 13.33° C | 44% | 1023.2 hPa | 0 mm | - | 0 W/m² | - |
| 1777674660 | 13.89° C | 43% | 1024.3 hPa | 0 mm | - | 0 W/m² | - |
| 1777674060 | 13.89° C | 43% | 1024.4 hPa | 0 mm | - | 0 W/m² | - |
| 1777671062 | 11.67° C | 49% | 1024.8 hPa | 0 mm | - | 0 W/m² | - |
| 1777666862 | 12.22° C | 48% | 1024.9 hPa | 0 mm | - | 0 W/m² | - |
| 1777662661 | 15.56° C | 39% | 1024.1 hPa | 0 mm | - | 0 W/m² | - |
| 1777661462 | 17.22° C | 36% | 1023.8 hPa | 0 mm | - | 4 W/m² | - |
| 1777650656 | 21.67° C | 24% | 1023 hPa | 0 mm | - | 300 W/m² | - |
| 1777644655 | 21.11° C | 24% | 1023.8 hPa | 0 mm | - | 490 W/m² | - |
| 1777637458 | 20.56° C | 25% | 1024.6 hPa | 0 mm | - | 502 W/m² | - |
| 1777635058 | 20° C | 27% | 1025.1 hPa | 0 mm | - | 618 W/m² | - |
| 1777625455 | 16.11° C | 27% | 1026.2 hPa | 0 mm | - | 470 W/m² | - |
| 1777623059 | 15.56° C | 29% | 1026.3 hPa | 0 mm | - | 398 W/m² | - |
| 1777621257 | 14.44° C | 30% | 1026.5 hPa | 0 mm | - | 338 W/m² | - |
| 1777618257 | 13.33° C | 32% | 1026.4 hPa | 0 mm | - | 234 W/m² | - |
| 1777611656 | 10° C | 35% | 1026.7 hPa | 0 mm | - | 12 W/m² | - |
| 1777594255 | 11.11° C | 34% | 1026.9 hPa | 0 mm | - | 0 W/m² | - |
* Rain latest hour (hover to see other rain measurements)
** Current wind speed in m/s (hover to see current wind gust speed)